Terminal Aerodrome Forecast
Issued by NWS

Home | Current Version | Previous Version | Text Only | Print | Product List | Glossary Off
Versions: 1 2 3 4 5 6 7 8 9 10 11 12 13 14 15

031
FTUS43 KTOP 231123
TAFMHK
TAF
KMHK 231123Z 2312/2412 17008KT P6SM FEW250
     FM231700 18013G20KT P6SM FEW050
     FM240000 16009KT P6SM FEW200=

USA.gov is the U.S. government's official web portal to all federal, state and local government web resources and services.